Cord, Arkansas
Current Conditions -  °F | °C
As of 11:56 PM on Thursday 30 Oct 2014 (Local Time) from KM19 Reporting Station
Clear Clear  
Wind Chill: 53°   Ceiling: Unl
Heat Index: 53°   Visibility: 10mi
Dew Point: 48°   Wind: 14mph
Humidity: 83%   Direction: 290°WNW
Pressure: 30.02"   Gusts: NA
Location:  35.81°N, 91.34°W
Report Text: KM19 310456Z AUTO 29012KT 10SM CLR 12/09 A3002 RMK AO2 T01160088 402270044 SLP164
Loading
Personal Weather Stations






























Interactive Weather Map New forecast layout! Learn more

10-Day Weather Forecast

Advertisements
Track Severe Weather on mobile